Terminal Aerodrome Forecast
Issued by NWS Oklahoma City, OK

Home | Current Version | Previous Version | Text Only | Print | Product List | Glossary On
Versions: 1 2 3 4 5 6 7 8 9 10 11 12 13 14 15 16 17 18 19 20 21 22 23 24
000
FTUS44 KOUN 301133
TAFOUN
TAF
KOUN 301133Z 3012/3112 36005KT P6SM SCT040
      TEMPO 3012/3015 5SM BR
     FM310100 14006KT P6SM SKC=

USA.gov is the U.S. government's official web portal to all federal, state and local government web resources and services.